createdAt,value
2023-06-10T00:00:08.763Z,19.00
2023-06-10T00:03:11.014Z,18.98
2023-06-10T00:06:15.910Z,18.99
2023-06-10T00:09:18.063Z,18.98
2023-06-10T00:12:19.896Z,18.97
2023-06-10T00:15:21.614Z,18.94
2023-06-10T00:18:23.353Z,18.92
2023-06-10T00:21:25.102Z,18.87
2023-06-10T00:24:27.112Z,18.83
2023-06-10T00:27:28.843Z,18.81
2023-06-10T00:30:30.505Z,18.76
2023-06-10T00:33:32.404Z,18.72
2023-06-10T00:36:34.225Z,18.67
2023-06-10T00:39:36.026Z,18.59
2023-06-10T00:42:41.165Z,18.53
2023-06-10T00:45:43.212Z,18.51
2023-06-10T00:48:46.389Z,18.52
2023-06-10T00:51:48.623Z,18.49
2023-06-10T00:54:50.871Z,18.51
2023-06-10T00:57:52.705Z,18.48
2023-06-10T01:00:54.363Z,18.45
2023-06-10T01:03:56.448Z,18.40
2023-06-10T01:07:15.863Z,18.32
2023-06-10T01:10:25.896Z,18.28
2023-06-10T01:13:30.174Z,18.24
2023-06-10T01:16:32.317Z,18.23
2023-06-10T01:19:33.980Z,18.26
2023-06-10T01:22:35.738Z,18.28
2023-06-10T01:25:40.831Z,18.35
2023-06-10T01:28:51.277Z,18.37
2023-06-10T01:32:01.963Z,18.35
2023-06-10T01:35:06.124Z,18.32
2023-06-10T01:38:08.678Z,18.32
2023-06-10T01:41:15.472Z,18.28
2023-06-10T01:44:24.687Z,18.19
2023-06-10T01:47:26.656Z,18.20
2023-06-10T01:50:29.200Z,18.13
2023-06-10T01:57:06.513Z,18.66
2023-06-10T02:00:09.411Z,18.66
2023-06-10T02:03:11.173Z,17.99
2023-06-10T02:06:13.168Z,17.98
2023-06-10T02:09:15.029Z,18.00
2023-06-10T02:12:18.291Z,18.02
2023-06-10T02:15:20.433Z,18.01
2023-06-10T02:18:22.208Z,17.94
2023-06-10T02:21:23.982Z,17.90
2023-06-10T02:24:25.654Z,17.87
2023-06-10T02:27:27.425Z,17.85
2023-06-10T02:30:29.058Z,17.83
2023-06-10T02:33:30.755Z,17.80
2023-06-10T02:36:32.637Z,17.75
2023-06-10T02:39:34.438Z,17.59
2023-06-10T02:42:36.109Z,17.68
2023-06-10T02:45:37.914Z,17.65
2023-06-10T02:48:44.201Z,17.66
2023-06-10T02:51:46.248Z,17.68
2023-06-10T02:54:47.977Z,17.70
2023-06-10T02:57:49.664Z,17.78
2023-06-10T03:00:51.325Z,17.82
2023-06-10T03:03:53.029Z,17.83
2023-06-10T03:06:54.846Z,17.84
2023-06-10T03:09:56.556Z,17.86
2023-06-10T03:12:58.315Z,17.87
2023-06-10T03:16:00.200Z,17.86
2023-06-10T03:19:01.958Z,17.86
2023-06-10T03:22:12.727Z,17.88
2023-06-10T03:25:14.390Z,17.88
2023-06-10T03:28:16.106Z,17.93
2023-06-10T03:31:17.899Z,17.94
2023-06-10T03:34:19.749Z,17.97
2023-06-10T03:37:21.476Z,17.99
2023-06-10T03:40:23.185Z,18.00
2023-06-10T03:43:24.868Z,18.05
2023-06-10T03:46:26.974Z,18.05
2023-06-10T03:49:28.718Z,18.11
2023-06-10T03:52:31.392Z,18.14
2023-06-10T03:55:33.076Z,18.18
2023-06-10T03:58:34.801Z,18.19
2023-06-10T04:01:36.451Z,18.23
2023-06-10T04:07:53.881Z,18.28
2023-06-10T04:10:55.579Z,18.26
2023-06-10T04:13:57.576Z,18.25
2023-06-10T04:16:59.803Z,18.24
2023-06-10T04:20:01.699Z,18.21
2023-06-10T04:23:03.815Z,18.22
2023-06-10T04:26:06.015Z,18.24
2023-06-10T04:29:07.700Z,18.29
2023-06-10T04:32:09.447Z,18.33
2023-06-10T04:35:13.426Z,18.38
2023-06-10T04:38:15.494Z,18.40
2023-06-10T04:41:17.202Z,18.31
2023-06-10T04:44:19.397Z,18.48
2023-06-10T04:47:21.082Z,18.48
2023-06-10T04:50:22.873Z,18.50
2023-06-10T04:53:24.524Z,18.56
2023-06-10T04:56:26.242Z,18.52
2023-06-10T04:59:28.225Z,18.52
2023-06-10T05:02:30.345Z,18.54
2023-06-10T05:05:32.065Z,18.64
2023-06-10T05:08:34.680Z,18.64
2023-06-10T05:11:36.349Z,18.65
2023-06-10T05:14:38.044Z,18.54
2023-06-10T05:17:40.183Z,18.43
2023-06-10T05:20:42.498Z,18.49
2023-06-10T05:23:44.333Z,18.59
2023-06-10T05:26:46.039Z,18.59
2023-06-10T05:29:47.800Z,18.76
2023-06-10T05:32:49.924Z,18.82
2023-06-10T05:35:51.790Z,18.97
2023-06-10T05:38:53.546Z,19.00
2023-06-10T05:41:55.285Z,18.96
2023-06-10T05:44:57.306Z,19.10
2023-06-10T05:47:59.031Z,19.14
2023-06-10T05:51:00.722Z,19.30
2023-06-10T05:54:02.407Z,19.38
2023-06-10T05:57:04.350Z,19.52
2023-06-10T06:00:06.662Z,19.51
2023-06-10T06:03:08.948Z,19.62
2023-06-10T06:06:11.155Z,19.76
2023-06-10T06:09:12.945Z,19.89
2023-06-10T06:12:14.613Z,19.76
2023-06-10T06:15:16.277Z,19.86
2023-06-10T06:18:18.086Z,19.87
2023-06-10T06:21:19.752Z,19.90
2023-06-10T06:24:21.936Z,20.12
2023-06-10T06:27:23.705Z,20.13
2023-06-10T06:30:25.404Z,20.12
2023-06-10T06:33:27.079Z,20.02
2023-06-10T06:36:38.101Z,20.12
2023-06-10T06:39:39.894Z,20.17
2023-06-10T06:42:41.590Z,20.15
2023-06-10T06:45:43.265Z,20.27
2023-06-10T06:48:45.175Z,20.46
2023-06-10T06:51:47.193Z,20.41
2023-06-10T06:54:49.392Z,20.47
2023-06-10T06:57:51.744Z,20.61
2023-06-10T07:00:53.489Z,20.83
2023-06-10T07:03:55.265Z,20.89
2023-06-10T07:06:57.218Z,20.83
2023-06-10T07:09:59.130Z,20.82
2023-06-10T07:13:00.874Z,20.81
2023-06-10T07:16:05.574Z,20.99
2023-06-10T07:19:07.197Z,21.11
2023-06-10T07:22:08.998Z,21.16
2023-06-10T07:25:11.011Z,21.38
2023-06-10T07:28:13.037Z,21.67
2023-06-10T07:31:15.122Z,21.99
2023-06-10T07:34:16.889Z,22.14
2023-06-10T07:37:18.587Z,22.42
2023-06-10T07:40:20.364Z,22.43
2023-06-10T07:43:22.358Z,22.42
2023-06-10T07:46:24.916Z,22.62
2023-06-10T07:49:26.618Z,22.73
2023-06-10T07:52:28.348Z,22.83
2023-06-10T07:55:30.286Z,22.76
2023-06-10T07:58:31.967Z,23.04
2023-06-10T08:01:33.647Z,23.21
2023-06-10T08:04:35.382Z,22.99
2023-06-10T08:07:37.210Z,22.98
2023-06-10T08:10:39.298Z,23.33
2023-06-10T08:13:41.376Z,22.97
2023-06-10T08:16:44.679Z,22.80
2023-06-10T08:19:49.377Z,23.71
2023-06-10T08:22:51.153Z,23.82
2023-06-10T08:25:52.881Z,23.99
2023-06-10T08:29:03.141Z,25.24
2023-06-10T08:32:17.101Z,26.00
2023-06-10T08:35:19.714Z,28.06
2023-06-10T08:38:21.443Z,28.96
2023-06-10T08:41:26.317Z,30.62
2023-06-10T08:44:30.776Z,31.78
2023-06-10T08:47:36.043Z,30.06
2023-06-10T08:50:38.914Z,29.55
2023-06-10T08:53:51.295Z,28.43
2023-06-10T08:56:56.423Z,28.35
2023-06-10T08:59:58.785Z,29.61
2023-06-10T09:03:04.991Z,32.26
2023-06-10T09:06:07.958Z,33.47
2023-06-10T09:09:09.854Z,34.58
2023-06-10T09:12:13.240Z,36.24
2023-06-10T09:15:15.330Z,35.10
2023-06-10T09:18:17.025Z,32.98
2023-06-10T09:21:18.810Z,29.41
2023-06-10T09:24:23.574Z,28.06
2023-06-10T09:27:25.617Z,27.35
2023-06-10T09:30:30.319Z,25.57
2023-06-10T09:33:32.363Z,27.38
2023-06-10T09:36:36.252Z,26.79
2023-06-10T09:39:38.230Z,27.48
2023-06-10T09:42:40.454Z,27.90
2023-06-10T09:45:42.561Z,27.75
2023-06-10T09:48:46.144Z,26.38
2023-06-10T09:51:52.659Z,25.90
2023-06-10T09:54:59.608Z,25.16
2023-06-10T09:58:02.120Z,24.24
2023-06-10T10:01:12.052Z,23.73
2023-06-10T10:04:13.787Z,23.51
2023-06-10T10:07:15.811Z,23.05
2023-06-10T10:10:19.925Z,23.06
2023-06-10T10:13:21.935Z,22.70
2023-06-10T10:16:36.659Z,22.82
2023-06-10T10:19:47.373Z,22.99
2023-06-10T10:22:50.984Z,22.83
2023-06-10T10:25:56.307Z,23.04
2023-06-10T10:29:13.121Z,23.28
2023-06-10T10:32:17.207Z,23.38
2023-06-10T10:35:23.011Z,23.53
2023-06-10T10:38:25.770Z,23.96
2023-06-10T10:41:27.935Z,27.96
2023-06-10T10:44:31.305Z,31.51
2023-06-10T10:47:35.523Z,32.16
2023-06-10T10:50:37.330Z,30.94
2023-06-10T10:53:44.773Z,29.08
2023-06-10T10:57:09.822Z,28.01
2023-06-10T11:00:12.335Z,26.77
2023-06-10T11:03:16.749Z,26.84
2023-06-10T11:06:19.438Z,26.68
2023-06-10T11:09:29.777Z,25.91
2023-06-10T11:12:43.127Z,25.40
2023-06-10T11:15:48.825Z,24.80
2023-06-10T11:18:55.102Z,24.75
2023-06-10T11:22:03.519Z,25.05
2023-06-10T11:25:15.186Z,25.54
2023-06-10T11:28:20.389Z,26.49
2023-06-10T11:31:28.565Z,26.87
2023-06-10T11:34:30.681Z,27.31
2023-06-10T11:37:32.596Z,27.32
2023-06-10T11:40:34.741Z,26.44
2023-06-10T11:43:37.558Z,26.07
2023-06-10T11:46:43.014Z,25.79
2023-06-10T11:49:46.548Z,25.83
2023-06-10T11:52:49.834Z,25.90
2023-06-10T11:55:52.232Z,25.87
2023-06-10T11:58:56.576Z,25.72
2023-06-10T12:01:58.621Z,25.56
2023-06-10T12:05:17.406Z,25.77
2023-06-10T12:08:19.303Z,26.44
2023-06-10T12:11:21.520Z,26.80
2023-06-10T12:14:43.454Z,26.83
2023-06-10T12:17:45.298Z,26.82
2023-06-10T12:20:47.667Z,26.61
2023-06-10T12:24:03.555Z,25.96
2023-06-10T12:27:09.791Z,26.35
2023-06-10T12:30:11.714Z,26.41
2023-06-10T12:33:22.068Z,26.77
2023-06-10T12:36:23.892Z,26.74
2023-06-10T12:39:26.189Z,26.81
2023-06-10T12:42:28.607Z,26.34
2023-06-10T12:45:41.712Z,27.13
2023-06-10T12:48:52.253Z,27.28
2023-06-10T12:51:54.523Z,26.97
2023-06-10T12:54:56.850Z,27.24
2023-06-10T12:57:58.655Z,27.42
2023-06-10T13:01:00.473Z,27.41
2023-06-10T13:04:02.297Z,27.69
2023-06-10T13:07:08.707Z,27.99
2023-06-10T13:10:11.151Z,27.67
2023-06-10T13:13:12.820Z,27.32
2023-06-10T13:16:14.854Z,27.15
2023-06-10T13:19:18.591Z,27.12
2023-06-10T13:22:20.226Z,26.96
2023-06-10T13:28:37.927Z,26.67
2023-06-10T13:31:39.929Z,26.52
2023-06-10T13:34:41.915Z,26.36
2023-06-10T13:37:43.880Z,26.04
2023-06-10T13:40:45.942Z,25.71
2023-06-10T13:43:48.380Z,25.55
2023-06-10T13:46:50.607Z,25.65
2023-06-10T13:49:52.462Z,25.68
2023-06-10T13:52:54.143Z,25.70
2023-06-10T13:55:55.925Z,25.82
2023-06-10T13:59:04.167Z,25.73
2023-06-10T14:02:06.334Z,25.77
2023-06-10T14:05:08.962Z,25.86
2023-06-10T14:08:16.106Z,25.72
2023-06-10T14:11:18.990Z,25.22
2023-06-10T14:14:21.002Z,25.25
2023-06-10T14:17:23.889Z,25.11
2023-06-10T14:20:25.628Z,24.87
2023-06-10T14:23:27.341Z,24.63
2023-06-10T14:26:28.978Z,24.76
2023-06-10T14:29:30.650Z,24.77
2023-06-10T14:32:32.774Z,24.92
2023-06-10T14:35:34.640Z,25.03
2023-06-10T14:38:36.750Z,25.11
2023-06-10T14:41:38.578Z,25.20
2023-06-10T14:44:43.440Z,25.32
2023-06-10T14:47:45.224Z,25.11
2023-06-10T14:50:47.064Z,24.92
2023-06-10T14:53:49.010Z,24.90
2023-06-10T14:56:50.996Z,24.99
2023-06-10T14:59:52.937Z,24.98
2023-06-10T15:02:58.144Z,25.29
2023-06-10T15:06:00.004Z,25.37
2023-06-10T15:09:05.040Z,25.91
2023-06-10T15:12:07.134Z,26.46
2023-06-10T15:15:09.394Z,26.77
2023-06-10T15:18:11.954Z,26.44
2023-06-10T15:21:13.966Z,26.60
2023-06-10T15:24:16.031Z,26.41
2023-06-10T15:27:19.126Z,26.07
2023-06-10T15:30:23.919Z,25.95
2023-06-10T15:33:26.003Z,25.69
2023-06-10T15:36:28.950Z,25.96
2023-06-10T15:39:30.666Z,25.36
2023-06-10T15:42:32.445Z,24.98
2023-06-10T15:45:35.805Z,24.66
2023-06-10T15:51:53.343Z,24.04
2023-06-10T15:54:57.691Z,23.86
2023-06-10T15:57:59.422Z,23.67
2023-06-10T16:01:01.817Z,23.36
2023-06-10T16:04:04.423Z,23.13
2023-06-10T16:07:06.241Z,23.09
2023-06-10T16:10:08.211Z,23.01
2023-06-10T16:13:10.430Z,22.94
2023-06-10T16:16:16.603Z,22.96
2023-06-10T16:19:18.901Z,22.93
2023-06-10T16:22:24.052Z,22.78
2023-06-10T16:25:26.028Z,22.78
2023-06-10T16:28:29.341Z,22.81
2023-06-10T16:31:32.047Z,22.77
2023-06-10T16:34:34.015Z,22.65
2023-06-10T16:37:35.757Z,22.59
2023-06-10T16:40:37.393Z,22.56
2023-06-10T16:43:39.070Z,22.49
2023-06-10T16:46:40.683Z,22.49
2023-06-10T16:49:42.720Z,22.46
2023-06-10T16:52:45.084Z,22.47
2023-06-10T16:55:47.186Z,22.43
2023-06-10T16:58:48.874Z,22.44
2023-06-10T17:01:50.872Z,22.49
2023-06-10T17:04:53.012Z,22.58
2023-06-10T17:07:54.827Z,22.62
2023-06-10T17:10:56.560Z,22.61
2023-06-10T17:13:58.648Z,22.57
2023-06-10T17:17:01.343Z,22.49
2023-06-10T17:20:03.516Z,22.50
2023-06-10T17:23:06.453Z,22.53
2023-06-10T17:26:08.094Z,22.47
2023-06-10T17:29:12.268Z,22.50
2023-06-10T17:32:16.600Z,22.49
2023-06-10T17:35:19.332Z,22.45
2023-06-10T17:38:21.335Z,22.45
2023-06-10T17:41:23.039Z,22.45
2023-06-10T17:44:25.531Z,22.44
2023-06-10T17:47:30.595Z,22.42
2023-06-10T17:50:32.369Z,22.39
2023-06-10T17:53:34.230Z,22.36
2023-06-10T17:56:36.069Z,22.34
2023-06-10T17:59:37.736Z,22.30
2023-06-10T18:02:39.801Z,22.32
2023-06-10T18:09:01.240Z,22.28
2023-06-10T18:12:04.317Z,22.23
2023-06-10T18:15:06.876Z,22.20
2023-06-10T18:18:09.039Z,22.16
2023-06-10T18:21:12.110Z,22.13
2023-06-10T18:24:16.065Z,22.09
2023-06-10T18:27:28.262Z,22.04
2023-06-10T18:30:29.925Z,21.99
2023-06-10T18:33:32.863Z,21.96
2023-06-10T18:36:34.653Z,21.94
2023-06-10T18:39:36.545Z,21.90
2023-06-10T18:42:38.477Z,21.91
2023-06-10T18:45:43.720Z,21.87
2023-06-10T18:48:49.610Z,21.85
2023-06-10T18:51:51.287Z,21.87
2023-06-10T18:54:53.250Z,21.87
2023-06-10T18:57:55.010Z,21.89
2023-06-10T19:00:56.708Z,21.89
2023-06-10T19:03:58.530Z,21.88
2023-06-10T19:07:00.295Z,21.90
2023-06-10T19:10:02.645Z,21.88
2023-06-10T19:13:04.776Z,21.86
2023-06-10T19:16:07.044Z,21.88
2023-06-10T19:19:08.752Z,21.88
2023-06-10T19:22:12.043Z,21.84
2023-06-10T19:25:14.026Z,21.80
2023-06-10T19:28:17.183Z,21.79
2023-06-10T19:31:19.106Z,21.75
2023-06-10T19:34:21.188Z,21.71
2023-06-10T19:37:23.243Z,21.72
2023-06-10T19:40:25.027Z,21.71
2023-06-10T19:43:26.707Z,21.70
2023-06-10T19:46:28.475Z,21.68
2023-06-10T19:49:30.470Z,21.65
2023-06-10T19:52:32.955Z,21.63
2023-06-10T19:55:37.460Z,21.56
2023-06-10T19:58:40.281Z,21.54
2023-06-10T20:01:42.681Z,21.49
2023-06-10T20:04:44.726Z,21.45
2023-06-10T20:07:46.766Z,21.43
2023-06-10T20:10:48.725Z,21.37
2023-06-10T20:13:50.564Z,21.31
2023-06-10T20:16:52.698Z,21.19
2023-06-10T20:19:54.690Z,21.11
2023-06-10T20:22:56.407Z,21.15
2023-06-10T20:25:58.249Z,21.08
2023-06-10T20:29:01.177Z,21.08
2023-06-10T20:32:03.063Z,21.03
2023-06-10T20:35:06.044Z,20.97
2023-06-10T20:38:08.081Z,20.91
2023-06-10T20:41:10.141Z,20.90
2023-06-10T20:44:12.021Z,20.95
2023-06-10T20:47:13.717Z,20.98
2023-06-10T20:50:15.632Z,20.98
2023-06-10T20:53:17.697Z,20.99
2023-06-10T20:56:19.894Z,20.96
2023-06-10T20:59:21.653Z,20.84
2023-06-10T21:02:23.380Z,20.85
2023-06-10T21:05:26.426Z,20.78
2023-06-10T21:08:28.660Z,20.80
2023-06-10T21:11:30.902Z,20.82
2023-06-10T21:14:33.916Z,20.82
2023-06-10T21:17:36.004Z,20.85
2023-06-10T21:20:38.894Z,20.86
2023-06-10T21:23:41.518Z,20.90
2023-06-10T21:26:43.542Z,20.89
2023-06-10T21:29:46.016Z,20.90
2023-06-10T21:32:48.842Z,20.96
2023-06-10T21:35:50.740Z,20.96
2023-06-10T21:38:52.444Z,20.97
2023-06-10T21:41:54.477Z,20.97
2023-06-10T21:44:56.516Z,20.92
2023-06-10T21:47:59.333Z,20.95
2023-06-10T21:51:03.446Z,20.95
2023-06-10T21:54:05.561Z,20.91
2023-06-10T21:57:07.557Z,20.91
2023-06-10T22:00:10.273Z,20.89
2023-06-10T22:03:13.412Z,20.81
2023-06-10T22:06:16.712Z,20.74
2023-06-10T22:09:22.032Z,20.68
2023-06-10T22:12:24.185Z,20.65
2023-06-10T22:15:27.239Z,20.59
2023-06-10T22:18:28.930Z,20.56
2023-06-10T22:21:31.633Z,20.58
2023-06-10T22:24:34.118Z,20.59
2023-06-10T22:27:36.458Z,20.61
2023-06-10T22:30:38.349Z,20.64
2023-06-10T22:33:40.019Z,20.63
2023-06-10T22:36:41.758Z,20.66
2023-06-10T22:39:43.462Z,20.61
2023-06-10T22:42:45.241Z,20.59
2023-06-10T22:45:47.058Z,20.56
2023-06-10T22:48:50.031Z,20.58
2023-06-10T22:51:51.749Z,20.48
2023-06-10T22:54:53.585Z,20.63
2023-06-10T22:57:55.465Z,20.64
2023-06-10T23:00:57.394Z,20.62
2023-06-10T23:03:59.276Z,20.59
2023-06-10T23:07:02.281Z,20.56
2023-06-10T23:10:04.289Z,20.48
2023-06-10T23:13:06.092Z,20.49
2023-06-10T23:16:08.096Z,20.47
2023-06-10T23:19:09.869Z,20.47
2023-06-10T23:22:11.613Z,20.43
2023-06-10T23:25:13.584Z,20.36
2023-06-10T23:28:18.135Z,20.42
2023-06-10T23:31:19.822Z,20.37
2023-06-10T23:34:22.039Z,20.38
2023-06-10T23:37:23.813Z,20.35
2023-06-10T23:40:25.548Z,20.38
2023-06-10T23:43:27.250Z,20.39
2023-06-10T23:46:29.507Z,20.41
2023-06-10T23:49:31.542Z,20.41
2023-06-10T23:52:33.458Z,20.37
2023-06-10T23:55:35.591Z,20.38
2023-06-10T23:58:37.391Z,20.38
